Weather observations for the past three days for
Everett Snohomish County
Metric (Imperial)
Date Time (pdt) Wind (kph) Vis. (km) Weather Sky Cond. Temperature (ºC) Relative Humidity Wind Chill (°C) Heat Index (°C) Pressure Precipitation (cm)
Air Dwpt 6 hour altimeter (cm) sea level (mb) 1 hr 3 hr 6 hr
Max. Min.
06 03:53 N 7 16.09 Fair CLR 12.2 11.1 93% 76.28 1016.7
06 02:53 N 6 16.09 Fair CLR 12.8 11.1 90% 76.25 1016.4
06 01:53 N 6 16.09 Fair CLR 12.8 11.1 90% 76.28 1016.7
06 00:53 N 9 16.09 Fair CLR 13.9 11.1 83% 76.28 1016.8
05 23:53 N 11 16.09 Fair CLR 13.9 10.6 81% 76.3 1017.0
05 22:53 N 7 16.09 Fair CLR 14.4 10.6 20.6 14.4 78% 76.28 1016.9
05 21:53 N 7 16.09 Mostly Cloudy BKN080 15.6 10.6 72% 76.3 1017.2
05 20:53 N 9 16.09 Fair CLR 16.7 10.6 67% 76.33 1017.6
05 19:53 N 7 16.09 Fair CLR 17.2 10 63% 76.3 1017.2
05 17:53 N 7 16.09 Fair CLR 20 10 53% 76.28 1016.8
05 16:53 NW 6 16.09 Partly Cloudy SCT090 20 10 20 16.1 53% 76.28 1016.6
05 15:53 NW 7 16.09 A Few Clouds FEW090 FEW110 19.4 10 55% 76.3 1017.2
05 14:53 W 7 16.09 Fair CLR 18.9 10 56% 76.33 1017.4
05 13:53 NW 11 16.09 Fair CLR 20 10 53% 76.33 1017.6
05 10:53 Calm 16.09 Fair CLR 16.7 10 16.7 11.1 65% 76.4 1018.6
05 09:53 W 11 16.09 Fair CLR 15.6 10 70% 76.4 1018.4
05 08:53 Calm 16.09 Fair CLR 15 8.9 67% 76.38 1018.0
05 07:53 Calm 16.09 A Few Clouds FEW110 13.3 9.4 77% 76.35 1017.8
05 06:53 Calm 16.09 Overcast OVC110 11.7 8.9 83% 76.33 1017.6
05 05:53 E 7 16.09 Partly Cloudy SCT120 11.7 9.4 86% 76.3 1017.2
05 04:53 E 7 16.09 Fair CLR 11.7 10 13.9 11.1 89% 76.3 1017.2
05 03:53 Calm 16.09 Partly Cloudy SCT110 11.7 10.6 93% 76.3 1017.0
05 02:53 Calm 16.09 Fair CLR 11.7 10 89% 76.3 1017.0
05 01:53 Calm 16.09 Fair CLR 13.3 10.6 84% 76.25 1016.6
05 00:53 Calm 16.09 Fair CLR 13.3 10.6 84% 76.28 1016.7
04 23:53 Calm 16.09 Fair CLR 13.3 10.6 84% 76.25 1016.4
04 22:53 Calm 16.09 Fair CLR 13.9 10.6 19.4 13.9 81% 76.23 1016.2
04 21:53 Calm 16.09 Fair CLR 14.4 10 75% 76.23 1016.2
04 20:53 E 9 16.09 Fair CLR 14.4 10 75% 76.23 1016.2
04 19:53 NE 6 16.09 Fair CLR 16.1 8.9 63% 76.2 1015.7
04 18:53 E 11 16.09 Fair CLR 17.2 8.9 58% 76.2 1015.9
04 17:53 N 11 16.09 Partly Cloudy SCT100 18.9 10 56% 76.15 1015.0
04 16:53 N 11 16.09 Fair CLR 18.9 9.4 20 15 54% 76.1 1014.3
04 15:53 Vrbl 11 16.09 Fair CLR 18.9 10.6 59% 76.07 1014.1
04 14:53 N 11 16.09 Fair CLR 18.9 10 56% 76.07 1014.1
04 12:53 N 15 16.09 Fair CLR 17.2 10 63% 76.05 1013.9
04 11:53 NW 13 16.09 A Few Clouds FEW014 16.7 10.6 67% 76.07 1014.0
04 10:53 W 9 16.09 Partly Cloudy FEW008 SCT010 15.6 11.7 16.1 11.7 78% 76.05 1013.7
04 09:53 Calm 16.09 Mostly Cloudy BKN008 15 11.7 81% 76.05 1013.7
04 08:53 N 6 16.09 Mostly Cloudy BKN008 13.3 11.7 90% 76.05 1013.8
04 07:53 Calm 14.48 Partly Cloudy SCT005 12.2 11.7 97% 76 1013.1
04 06:53 Calm 16.09 Fair CLR 11.7 11.1 96% 75.97 1012.6
04 05:53 Calm 16.09 A Few Clouds FEW120 12.2 11.1 93% 75.92 1011.9
04 04:53 Calm 16.09 Mostly Cloudy FEW037 BKN090 11.7 11.1 14.4 11.7 96% 75.9 1011.6
04 03:53 Calm 16.09 Mostly Cloudy BKN110 12.2 11.1 93% 75.87 1011.2
04 02:53 Calm 16.09 Fair CLR 12.8 10.6 87% 75.84 1010.9
04 01:53 Vrbl 6 16.09 Light Rain SCT035 SCT050 BKN070 12.8 11.1 90% 75.84 1011.1
04 00:53 Calm 16.09 Overcast SCT037 BKN050 OVC070 13.9 10 78% 75.87 1011.4
03 23:53 Calm 16.09 Overcast BKN085 OVC110 14.4 8.9 70% 75.84 1011.1
03 22:53 SW 9 16.09 Overcast BKN034 BKN070 OVC085 14.4 9.4 17.8 13.9 72% 75.84 1010.9
03 21:53 S 9 16.09 A Few Clouds FEW095 14.4 10 75% 75.84 1010.9
03 20:53 Calm 16.09 Mostly Cloudy BKN075 15 8.9 67% 75.82 1010.9
03 19:53 SW 9 16.09 Fair CLR 15.6 8.9 65% 75.79 1010.5
03 18:53 Vrbl 6 16.09 Fair CLR 17.2 8.3 56% 75.77 1010.0
03 17:53 S 9 16.09 Partly Cloudy FEW075 SCT110 17.2 8.3 56% 75.77 1009.8
03 16:53 S 15 16.09 Mostly Cloudy SCT070 BKN110 17.8 7.2 18.3 15 50% 75.77 1009.9
03 15:53 W 11 16.09 Mostly Cloudy SCT041 BKN060 17.8 8.3 54% 75.79 1010.2
03 14:53 SW 9 16.09 A Few Clouds FEW037 FEW100 17.2 8.3 56% 75.79 1010.2
03 13:53 S 19 16.09 A Few Clouds FEW037 17.2 8.3 56% 75.77 1010.1
03 12:53 S 15 16.09 Overcast BKN029 BKN037 OVC055 16.7 7.8 56% 75.77 1010.1
03 11:53 SW 15 16.09 Overcast BKN029 OVC039 15.6 9.4 67% 75.74 1009.8
03 10:53 SW 22 G 39 16.09 Partly Cloudy SCT028 SCT033 15.6 8.9 16.7 12.2 65% 75.72 1009.4
03 09:53 S 17 16.09 Fair CLR 15 9.4 69% 75.72 1009.4
03 08:53 SE 17 16.09 Partly Cloudy FEW032 SCT050 13.9 9.4 74% 75.72 1009.4
03 07:53 SE 19 16.09 Overcast SCT070 OVC120 12.8 10 83% 75.69 1009.2
03 06:53 SE 20 16.09 Overcast FEW055 FEW070 OVC110 12.2 10 87% 75.67 1008.8
03 05:53 Vrbl 9 G 28 16.09 Overcast BKN044 OVC055 12.8 9.4 80% 75.64 1008.4
03 04:53 S 19 16.09 Light Rain BKN060 BKN080 OVC100 12.2 9.4 13.3 12.2 83% 75.64 1008.2
Date Time (pdt) Wind (kph) Vis. (km) Weather Sky Cond. Air Dwpt Max. Min. Relative Humidity Wind Chill (°C) Heat Index (°C) altimeter (cm) sea level (mb) 1 hr 3 hr 6 hr
6 hour
Temperature (ºC) Pressure Precipitation (cm)